Time;durP1;ratioP1;P1;durP2;ratioP2;P2;SDS_P1;SDS_P2;PMS_P1;PMS_P2;Temp;Humidity;BMP_temperature;BMP_pressure;BME280_temperature;BME280_humidity;BME280_pressure;Samples;Min_cycle;Max_cycle;Signal;HPM_P1;HPM_P2
2022/12/17 13:06:54;;;;;;;63.08;34.25;;;0.70;99.90;;;;;;7371576;19;20351;-42
2022/12/17 13:09:21;;;;;;;60.40;32.90;;;0.60;99.90;;;;;;7377586;19;20460;-43
2022/12/17 13:12:03;;;;;;;60.25;33.30;;;0.60;99.90;;;;;;7367535;19;20010;-43
2022/12/17 13:14:49;;;;;;;62.65;35.47;;;0.70;99.90;;;;;;7374579;19;20026;-42
2022/12/17 13:17:15;;;;;;;62.25;34.10;;;0.60;99.90;;;;;;7372288;19;20782;-45
2022/12/17 13:20:19;;;;;;;61.00;33.03;;;0.60;99.90;;;;;;7374527;19;20018;-44
2022/12/17 13:22:51;;;;;;;60.00;33.83;;;0.60;99.90;;;;;;7371199;19;20021;-42
2022/12/17 13:25:21;;;;;;;58.08;30.98;;;0.60;99.90;;;;;;7376020;19;20370;-46
2022/12/17 13:27:48;;;;;;;60.05;32.63;;;0.60;99.90;;;;;;7370409;19;20026;-43
2022/12/17 13:30:20;;;;;;;57.40;31.35;;;0.70;99.90;;;;;;7375500;19;20365;-46
2022/12/17 13:33:07;;;;;;;59.13;31.65;;;0.60;99.90;;;;;;7369421;19;20782;-48
2022/12/17 13:35:45;;;;;;;54.35;30.80;;;0.50;99.90;;;;;;7373929;19;20025;-43
2022/12/17 13:38:29;;;;;;;115.07;66.43;;;0.50;99.90;;;;;;7372795;19;20021;-42
2022/12/17 13:41:17;;;;;;;75.85;39.08;;;0.50;99.90;;;;;;7369213;19;20513;-44
2022/12/17 13:43:46;;;;;;;63.72;37.40;;;0.50;99.90;;;;;;7377116;19;20376;-41
2022/12/17 13:46:27;;;;;;;64.63;33.47;;;0.50;99.90;;;;;;7376028;19;20086;-43
2022/12/17 13:48:58;;;;;;;57.47;32.40;;;0.50;99.90;;;;;;7370329;19;20426;-43
2022/12/17 13:51:31;;;;;;;60.67;31.85;;;0.40;99.90;;;;;;7372572;19;20014;-44
2022/12/17 13:54:00;;;;;;;61.20;31.48;;;0.40;99.90;;;;;;7367775;19;20577;-44
2022/12/17 13:56:33;;;;;;;60.58;33.38;;;0.20;99.90;;;;;;7375154;19;20489;-45
2022/12/17 13:59:01;;;;;;;65.13;34.35;;;0.20;99.90;;;;;;7377784;19;20014;-47
2022/12/17 14:01:28;;;;;;;62.05;32.28;;;0.20;99.90;;;;;;7371698;19;20014;-48
2022/12/17 14:04:04;;;;;;;62.65;31.60;;;0.10;99.90;;;;;;7373442;19;20026;-44
2022/12/17 14:06:36;;;;;;;61.78;32.08;;;0.10;99.90;;;;;;7377006;19;20018;-45
2022/12/17 14:09:03;;;;;;;61.90;32.63;;;0.10;99.90;;;;;;7374962;19;20170;-44
2022/12/17 14:14:29;;;;;;;64.30;34.60;;;0.00;99.90;;;;;;7373312;19;20498;-44
2022/12/17 14:16:57;;;;;;;62.53;32.83;;;-0.10;99.90;;;;;;7368423;19;20021;-46
2022/12/17 14:19:25;;;;;;;61.10;31.70;;;-0.10;99.90;;;;;;7366564;19;20015;-47
2022/12/17 14:21:55;;;;;;;63.60;30.70;;;-0.10;99.90;;;;;;7363463;19;20477;-44
2022/12/17 14:24:26;;;;;;;52.42;26.90;;;-0.10;99.90;;;;;;7362788;19;20844;-44
2022/12/17 14:26:57;;;;;;;63.97;32.55;;;-0.20;99.90;;;;;;7357221;19;20025;-48
2022/12/17 14:29:31;;;;;;;58.50;29.70;;;-0.20;99.90;;;;;;7356297;19;20018;-49
2022/12/17 14:32:00;;;;;;;67.93;32.53;;;-0.20;99.90;;;;;;7367729;19;20098;-46
2022/12/17 14:34:27;;;;;;;60.58;29.75;;;-0.30;99.90;;;;;;7365221;19;20030;-48
2022/12/17 14:37:00;;;;;;;64.72;31.65;;;-0.30;99.90;;;;;;7369745;19;20029;-45
2022/12/17 14:39:29;;;;;;;60.63;29.38;;;-0.30;99.90;;;;;;7368639;19;20031;-44
2022/12/17 14:44:56;;;;;;;67.80;29.50;;;-0.40;99.90;;;;;;7373351;19;20032;-45
2022/12/17 14:47:35;;;;;;;63.65;30.20;;;-0.40;99.90;;;;;;7373403;19;20028;-45
2022/12/17 14:50:15;;;;;;;61.05;29.33;;;-0.50;99.90;;;;;;7371043;19;20018;-43
2022/12/17 14:52:58;;;;;;;63.45;29.15;;;-0.50;99.90;;;;;;7369796;19;20401;-44
2022/12/17 14:55:57;;;;;;;61.40;28.40;;;-0.50;99.90;;;;;;7375079;19;20019;-45
2022/12/17 14:58:25;;;;;;;74.10;35.10;;;-0.60;99.90;;;;;;7375109;19;20473;-44
2022/12/17 15:01:12;;;;;;;68.20;31.95;;;-0.60;99.90;;;;;;7368987;19;20130;-44
2022/12/17 15:03:42;;;;;;;65.97;29.15;;;-0.60;99.90;;;;;;7371943;19;20476;-48
2022/12/17 15:06:15;;;;;;;74.97;33.20;;;-0.70;99.90;;;;;;7372671;19;20019;-46
2022/12/17 15:09:03;;;;;;;65.07;30.67;;;-0.70;99.90;;;;;;7370824;19;20098;-44
2022/12/17 15:11:29;;;;;;;68.35;30.40;;;-0.80;99.90;;;;;;7373992;19;20014;-44
2022/12/17 15:13:57;;;;;;;67.50;31.83;;;-0.70;99.90;;;;;;7375756;19;20015;-42
2022/12/17 15:16:30;;;;;;;67.78;30.48;;;-0.80;99.90;;;;;;7377194;19;20014;-45
2022/12/17 15:18:59;;;;;;;69.47;29.63;;;-0.80;99.90;;;;;;7380372;19;20102;-44
2022/12/17 15:21:26;;;;;;;73.78;31.63;;;-0.90;99.90;;;;;;7380135;19;20025;-44
2022/12/17 15:23:52;;;;;;;69.05;30.30;;;-0.90;99.90;;;;;;7380440;19;20045;-43
2022/12/17 15:26:20;;;;;;;66.65;31.88;;;-0.90;99.90;;;;;;7379603;19;20401;-43
2022/12/17 15:28:46;;;;;;;64.55;29.73;;;-0.90;99.90;;;;;;7380319;19;20486;-44
2022/12/17 15:31:14;;;;;;;69.47;32.72;;;-1.00;99.90;;;;;;7380198;19;20019;-45
2022/12/17 15:33:41;;;;;;;71.70;30.55;;;-1.00;99.90;;;;;;7381417;19;20014;-47
2022/12/17 15:36:11;;;;;;;78.75;30.30;;;-1.00;99.90;;;;;;7376565;19;20033;-47
2022/12/17 15:38:55;;;;;;;65.18;29.35;;;-1.00;99.90;;;;;;7367681;19;20046;-45
2022/12/17 15:44:07;;;;;;;72.90;30.40;;;-1.00;99.90;;;;;;7368886;19;20489;-44
2022/12/17 15:46:33;;;;;;;67.38;30.05;;;-1.10;99.90;;;;;;7366871;19;20023;-47
2022/12/17 15:49:00;;;;;;;70.43;29.77;;;-1.10;99.90;;;;;;7372138;19;20620;-44
2022/12/17 15:51:26;;;;;;;71.68;29.10;;;-1.10;99.90;;;;;;7370838;19;20014;-43
2022/12/17 15:53:53;;;;;;;68.10;30.35;;;-1.10;99.90;;;;;;7368227;19;20370;-47
2022/12/17 15:56:22;;;;;;;67.20;28.40;;;-1.10;99.90;;;;;;7370385;19;20020;-44
2022/12/17 15:58:49;;;;;;;67.38;29.40;;;-1.10;99.90;;;;;;7372727;19;20418;-44
2022/12/17 16:01:16;;;;;;;68.30;28.30;;;-1.10;99.90;;;;;;7375815;19;20010;-45
2022/12/17 16:03:42;;;;;;;66.03;27.05;;;-1.10;99.90;;;;;;7378282;19;20556;-46
2022/12/17 16:06:10;;;;;;;72.38;29.77;;;-1.10;99.90;;;;;;7377276;19;20018;-43
2022/12/17 16:08:38;;;;;;;68.40;28.00;;;-1.10;99.90;;;;;;7380937;19;20505;-43
2022/12/17 16:11:06;;;;;;;74.10;29.85;;;-1.10;99.90;;;;;;7373241;19;20022;-45
2022/12/17 16:13:37;;;;;;;74.20;30.38;;;-1.10;99.90;;;;;;7378657;19;20078;-45
2022/12/17 16:16:05;;;;;;;72.43;29.48;;;-1.20;99.90;;;;;;7375222;19;20418;-44
2022/12/17 16:18:31;;;;;;;71.40;29.20;;;-1.20;99.90;;;;;;7377155;19;20035;-44
2022/12/17 16:21:04;;;;;;;78.10;32.88;;;-1.30;99.90;;;;;;7373892;19;20090;-44
2022/12/17 16:23:30;;;;;;;79.03;32.60;;;-1.30;99.90;;;;;;7371296;19;20025;-44
2022/12/17 16:26:01;;;;;;;76.80;27.33;;;-1.30;99.90;;;;;;7376170;19;20481;-44
2022/12/17 16:28:28;;;;;;;74.22;30.10;;;-1.30;99.90;;;;;;7377192;19;20018;-46
2022/12/17 16:31:00;;;;;;;73.63;29.95;;;-1.30;99.90;;;;;;7375065;19;20026;-44
2022/12/17 16:33:30;;;;;;;71.47;30.08;;;-1.30;99.90;;;;;;7375287;19;20535;-45
2022/12/17 16:35:56;;;;;;;76.93;33.20;;;-1.30;99.90;;;;;;7371802;19;20048;-44
2022/12/17 16:38:23;;;;;;;72.88;29.02;;;-1.20;99.90;;;;;;7366588;19;20018;-48
2022/12/17 16:40:52;;;;;;;76.15;30.02;;;-1.20;99.90;;;;;;7371104;19;20026;-44
2022/12/17 16:43:18;;;;;;;70.85;30.42;;;-1.20;99.90;;;;;;7372716;19;20015;-44
2022/12/17 16:45:50;;;;;;;70.93;30.08;;;-1.30;99.90;;;;;;7375579;19;20018;-45
2022/12/17 16:48:18;;;;;;;64.78;28.65;;;-1.30;99.90;;;;;;7371186;19;20038;-45
2022/12/17 16:50:45;;;;;;;70.38;28.85;;;-1.20;99.90;;;;;;7368387;19;20026;-46
2022/12/17 16:53:13;;;;;;;71.80;29.27;;;-1.30;99.90;;;;;;7369003;19;20025;-45
2022/12/17 16:55:45;;;;;;;69.78;30.80;;;-1.30;99.90;;;;;;7371858;19;20034;-47
2022/12/17 16:58:13;;;;;;;79.75;32.90;;;-1.30;99.90;;;;;;7372618;19;21187;-45
2022/12/17 17:00:39;;;;;;;78.93;30.88;;;-1.30;99.90;;;;;;7369918;19;20041;-45
2022/12/17 17:03:07;;;;;;;75.72;29.73;;;-1.30;99.90;;;;;;7368157;19;20023;-46
2022/12/17 17:05:37;;;;;;;82.45;33.38;;;-1.30;99.90;;;;;;7368171;19;20025;-47
2022/12/17 17:08:04;;;;;;;78.57;33.28;;;-1.30;99.90;;;;;;7376060;19;20086;-46
2022/12/17 17:10:33;;;;;;;83.72;34.20;;;-1.30;99.90;;;;;;7374083;19;20565;-46
2022/12/17 17:12:59;;;;;;;76.05;32.08;;;-1.30;99.90;;;;;;7374480;19;20010;-44
2022/12/17 17:15:26;;;;;;;77.53;32.25;;;-1.40;99.90;;;;;;7369796;19;20105;-47
2022/12/17 17:17:52;;;;;;;75.50;33.22;;;-1.40;99.90;;;;;;7374548;19;20049;-47
2022/12/17 17:20:18;;;;;;;74.40;31.52;;;-1.40;99.90;;;;;;7373789;19;20037;-46
2022/12/17 17:22:45;;;;;;;80.53;34.78;;;-1.40;99.90;;;;;;7375088;19;20018;-46
2022/12/17 17:25:11;;;;;;;73.78;30.73;;;-1.40;99.90;;;;;;7371141;19;20023;-45
2022/12/17 17:27:38;;;;;;;71.40;31.70;;;-1.40;99.90;;;;;;7371409;19;20022;-49
2022/12/17 17:30:04;;;;;;;78.93;32.95;;;-1.40;99.90;;;;;;7373094;19;20034;-45
2022/12/17 17:32:31;;;;;;;70.32;31.13;;;-1.50;99.90;;;;;;7367314;19;20028;-46
2022/12/17 17:34:57;;;;;;;73.00;31.88;;;-1.60;99.90;;;;;;7372654;19;20408;-45
2022/12/17 17:37:23;;;;;;;70.82;31.55;;;-1.60;99.90;;;;;;7371944;19;20410;-46
2022/12/17 17:39:49;;;;;;;76.43;33.22;;;-1.60;99.90;;;;;;7373993;19;20018;-48
2022/12/17 17:42:15;;;;;;;79.93;31.83;;;-1.70;99.90;;;;;;7376052;19;20025;-48
2022/12/17 17:44:42;;;;;;;82.82;32.08;;;-1.70;99.90;;;;;;7373964;19;20018;-46
2022/12/17 17:47:08;;;;;;;72.10;31.25;;;-1.80;99.90;;;;;;7376533;19;20018;-45
2022/12/17 17:49:34;;;;;;;75.75;34.05;;;-1.80;99.90;;;;;;7375327;19;20014;-45
2022/12/17 17:52:01;;;;;;;72.40;30.33;;;-1.80;99.90;;;;;;7372288;19;20085;-44
2022/12/17 17:54:27;;;;;;;67.55;31.30;;;-1.70;99.90;;;;;;7367893;19;20017;-44
2022/12/17 17:56:53;;;;;;;73.72;34.20;;;-1.70;99.90;;;;;;7371203;19;20056;-44
2022/12/17 17:59:19;;;;;;;80.88;35.67;;;-1.70;99.90;;;;;;7371617;19;20046;-45
2022/12/17 18:01:48;;;;;;;75.95;32.63;;;-1.70;99.90;;;;;;7371137;19;20050;-47
2022/12/17 18:04:20;;;;;;;70.00;33.30;;;-1.70;99.90;;;;;;7372242;19;20509;-44
2022/12/17 18:06:47;;;;;;;70.72;33.15;;;-1.70;99.90;;;;;;7370064;19;20485;-44
2022/12/17 18:09:14;;;;;;;74.80;34.78;;;-1.70;99.90;;;;;;7365713;19;21105;-44
2022/12/17 18:11:41;;;;;;;71.68;34.70;;;-1.70;99.90;;;;;;7368137;19;20022;-44
2022/12/17 18:14:11;;;;;;;74.03;35.70;;;-1.70;99.90;;;;;;7369908;19;20101;-44
2022/12/17 18:16:43;;;;;;;83.18;37.45;;;-1.70;99.90;;;;;;7372055;19;20022;-45
2022/12/17 18:19:19;;;;;;;76.28;37.33;;;-1.70;99.90;;;;;;7367956;19;20107;-46
2022/12/17 18:21:46;;;;;;;86.68;39.38;;;-1.70;99.90;;;;;;7374698;19;20015;-46
2022/12/17 18:24:21;;;;;;;80.00;36.03;;;-1.60;99.90;;;;;;7371185;19;20021;-46
2022/12/17 18:26:49;;;;;;;83.40;37.33;;;-1.60;99.90;;;;;;7374890;19;20026;-45
2022/12/17 18:29:18;;;;;;;77.93;35.83;;;-1.60;99.90;;;;;;7367986;19;20090;-44
2022/12/17 18:31:45;;;;;;;69.85;36.03;;;-1.80;99.90;;;;;;7371690;19;20508;-48
2022/12/17 18:34:15;;;;;;;71.90;33.72;;;-1.80;99.90;;;;;;7373043;19;20019;-47
2022/12/17 18:36:44;;;;;;;69.93;35.92;;;-1.90;99.90;;;;;;7374504;19;20022;-45
2022/12/17 18:39:16;;;;;;;72.88;36.58;;;-1.90;99.90;;;;;;7370465;19;20019;-46
2022/12/17 18:44:31;;;;;;;76.07;37.50;;;-1.90;99.90;;;;;;7376400;19;20037;-44
2022/12/17 18:46:57;;;;;;;85.05;38.45;;;-1.90;99.90;;;;;;7374939;19;20383;-41
2022/12/17 18:49:25;;;;;;;74.15;35.92;;;-1.90;99.90;;;;;;7379742;19;20089;-41
2022/12/17 18:51:53;;;;;;;78.85;37.78;;;-1.90;99.90;;;;;;7379354;19;20014;-43
2022/12/17 18:54:22;;;;;;;85.53;37.97;;;-1.90;99.90;;;;;;7382150;19;20476;-42
2022/12/17 18:56:49;;;;;;;83.70;39.20;;;-1.80;99.90;;;;;;7381482;19;20025;-41
2022/12/17 18:59:17;;;;;;;82.70;39.95;;;-1.90;99.90;;;;;;7379547;19;20023;-41
2022/12/17 19:01:45;;;;;;;91.68;42.33;;;-1.90;99.90;;;;;;7374854;19;20073;-43
2022/12/17 19:04:14;;;;;;;79.45;38.72;;;-1.90;99.90;;;;;;7372706;19;20477;-48
2022/12/17 19:06:42;;;;;;;82.53;40.58;;;-1.90;99.90;;;;;;7372664;19;20023;-42
2022/12/17 19:09:16;;;;;;;77.65;38.47;;;-1.90;99.90;;;;;;7369918;19;20019;-44
2022/12/17 19:11:42;;;;;;;81.47;41.60;;;-1.90;99.90;;;;;;7378038;19;20481;-49
2022/12/17 19:14:09;;;;;;;85.53;43.42;;;-1.90;99.90;;;;;;7374946;19;20022;-45
2022/12/17 19:16:35;;;;;;;77.68;40.97;;;-1.90;99.90;;;;;;7376380;19;20057;-48
2022/12/17 19:19:04;;;;;;;80.43;39.30;;;-2.00;99.90;;;;;;7374582;19;20611;-45
2022/12/17 19:21:32;;;;;;;75.28;38.33;;;-1.90;99.90;;;;;;7378307;19;20097;-49
2022/12/17 19:24:02;;;;;;;79.90;38.78;;;-1.90;99.90;;;;;;7375705;19;20395;-46
2022/12/17 19:26:29;;;;;;;86.15;41.25;;;-1.90;99.90;;;;;;7374471;19;20026;-45
2022/12/17 19:28:57;;;;;;;84.22;40.65;;;-1.80;99.90;;;;;;7370586;19;20493;-45
2022/12/17 19:31:26;;;;;;;84.32;41.03;;;-1.90;99.90;;;;;;7370856;19;20015;-46
2022/12/17 19:33:54;;;;;;;93.05;43.10;;;-1.90;99.90;;;;;;7372311;19;20027;-48
2022/12/17 19:36:22;;;;;;;88.00;45.20;;;-1.90;99.90;;;;;;7374119;19;20022;-45
2022/12/17 19:38:55;;;;;;;90.55;43.38;;;-1.90;99.90;;;;;;7370199;19;20094;-45
2022/12/17 19:41:22;;;;;;;80.50;39.72;;;-1.90;99.90;;;;;;7372522;19;20366;-44
2022/12/17 19:43:58;;;;;;;87.30;41.53;;;-2.00;99.90;;;;;;7380253;19;20021;-46
2022/12/17 19:46:25;;;;;;;80.25;38.85;;;-2.00;99.90;;;;;;7375597;19;20015;-44
2022/12/17 19:48:52;;;;;;;89.00;42.15;;;-1.90;99.90;;;;;;7380423;19;20018;-45
2022/12/17 19:51:22;;;;;;;82.50;39.35;;;-1.90;99.90;;;;;;7373939;19;20014;-45
2022/12/17 19:53:48;;;;;;;75.95;38.08;;;-1.90;99.90;;;;;;7376545;19;20018;-47
2022/12/17 19:56:26;;;;;;;76.95;37.80;;;-2.00;99.90;;;;;;7377580;19;20018;-47
2022/12/17 19:59:00;;;;;;;71.60;37.33;;;-2.00;99.90;;;;;;7380066;19;20465;-47
2022/12/17 20:01:30;;;;;;;71.68;37.70;;;-2.10;99.90;;;;;;7373080;19;20073;-45
2022/12/17 20:03:56;;;;;;;80.70;38.13;;;-2.20;99.90;;;;;;7378025;19;20081;-47
2022/12/17 20:06:26;;;;;;;80.43;36.70;;;-2.20;99.90;;;;;;7378719;19;20758;-44
2022/12/17 20:08:53;;;;;;;78.43;37.90;;;-2.30;99.90;;;;;;7370367;19;20021;-45
2022/12/17 20:11:32;;;;;;;90.85;40.35;;;-2.30;99.90;;;;;;7378291;19;20052;-45
2022/12/17 20:14:01;;;;;;;82.97;37.88;;;-2.30;99.90;;;;;;7370743;19;20025;-44
2022/12/17 20:16:30;;;;;;;82.18;36.78;;;-2.20;99.90;;;;;;7377398;19;20025;-44
2022/12/17 20:19:00;;;;;;;83.60;38.85;;;-2.20;99.90;;;;;;7372361;19;20057;-43
2022/12/17 20:21:27;;;;;;;87.45;39.92;;;-2.20;99.90;;;;;;7375912;19;20018;-45
2022/12/17 20:23:54;;;;;;;87.43;39.72;;;-2.20;99.90;;;;;;7373005;19;20375;-44
2022/12/17 20:26:21;;;;;;;88.80;39.20;;;-2.20;99.90;;;;;;7372542;19;20457;-46
2022/12/17 20:28:48;;;;;;;83.40;37.58;;;-2.20;99.90;;;;;;7373195;19;20022;-44
2022/12/17 20:31:15;;;;;;;87.32;38.35;;;-2.10;99.90;;;;;;7378614;19;20991;-44
2022/12/17 20:33:41;;;;;;;73.10;34.08;;;-2.10;99.90;;;;;;7375055;19;20409;-46
2022/12/17 20:36:10;;;;;;;78.15;37.60;;;-2.10;99.90;;;;;;7372230;19;20073;-47
2022/12/17 20:38:37;;;;;;;83.47;38.45;;;-2.20;99.90;;;;;;7377124;19;20051;-48
2022/12/17 20:41:13;;;;;;;80.28;36.53;;;-2.20;99.90;;;;;;7373440;19;20018;-47
2022/12/17 20:43:39;;;;;;;85.13;38.95;;;-2.30;99.90;;;;;;7374650;19;20025;-43
2022/12/17 20:46:08;;;;;;;84.25;37.05;;;-2.30;99.90;;;;;;7376221;19;20496;-46
2022/12/17 20:48:43;;;;;;;90.28;37.67;;;-2.30;99.90;;;;;;7371438;19;20015;-45
2022/12/17 20:51:15;;;;;;;81.10;37.05;;;-2.30;99.90;;;;;;7376439;19;20018;-45
2022/12/17 20:53:42;;;;;;;74.65;37.08;;;-2.30;99.90;;;;;;7376756;19;20494;-45
2022/12/17 20:56:13;;;;;;;86.95;35.28;;;-2.30;99.90;;;;;;7376280;19;20030;-44
2022/12/17 20:58:40;;;;;;;;;;;-2.40;99.90;;;;;;7373255;19;20279;-44
2022/12/17 21:01:19;;;;;;;79.85;34.88;;;-2.50;99.90;;;;;;7372727;19;19923;-45
2022/12/17 21:03:48;;;;;;;84.18;37.53;;;-2.50;99.90;;;;;;7375189;19;20588;-44
2022/12/17 21:06:31;;;;;;;71.65;33.75;;;-2.50;99.90;;;;;;7375345;19;20041;-45
2022/12/17 21:08:57;;;;;;;83.72;35.97;;;-2.50;99.90;;;;;;7376507;19;20022;-45
2022/12/17 21:11:26;;;;;;;89.63;34.90;;;-2.50;99.90;;;;;;7374923;19;20585;-45
2022/12/17 21:13:54;;;;;;;80.15;35.35;;;-2.50;99.90;;;;;;7371892;19;20015;-46
2022/12/17 21:16:26;;;;;;;82.97;37.00;;;-2.50;99.90;;;;;;7372902;19;20282;-46
2022/12/17 21:18:54;;;;;;;96.00;40.25;;;-2.40;99.90;;;;;;7375242;19;20486;-43
2022/12/17 21:21:32;;;;;;;89.82;40.03;;;-2.40;99.90;;;;;;7373145;19;20019;-46
2022/12/17 21:24:01;;;;;;;92.10;36.42;;;-2.40;99.90;;;;;;7373173;19;20385;-44
2022/12/17 21:26:28;;;;;;;92.38;37.45;;;-2.50;99.90;;;;;;7374131;19;20537;-45
2022/12/17 21:28:55;;;;;;;91.25;35.67;;;-2.50;99.90;;;;;;7371165;19;20513;-45
2022/12/17 21:31:25;;;;;;;95.63;37.35;;;-2.50;99.90;;;;;;7375801;19;20587;-45
2022/12/17 21:33:53;;;;;;;94.03;40.45;;;-2.50;99.90;;;;;;7368616;19;20022;-47
2022/12/17 21:36:21;;;;;;;95.25;37.80;;;-2.50;99.90;;;;;;7375933;19;20037;-44
2022/12/17 21:38:48;;;;;;;95.15;37.25;;;-2.50;99.90;;;;;;7370030;19;20022;-46
2022/12/17 21:41:17;;;;;;;102.13;38.88;;;-2.50;99.90;;;;;;7370254;19;20033;-46
2022/12/17 21:43:44;;;;;;;94.43;38.95;;;-2.50;99.90;;;;;;7371458;19;20682;-44
2022/12/17 21:46:12;;;;;;;86.68;36.10;;;-2.50;99.90;;;;;;7371750;19;20019;-46
2022/12/17 21:48:40;;;;;;;84.28;37.00;;;-2.50;99.90;;;;;;7373318;19;20023;-47
2022/12/17 21:51:09;;;;;;;96.55;39.25;;;-2.50;99.90;;;;;;7373417;19;20022;-43
2022/12/17 21:53:37;;;;;;;88.78;34.33;;;-2.60;99.90;;;;;;7373685;19;20391;-40
2022/12/17 21:56:09;;;;;;;89.53;36.13;;;-2.60;99.90;;;;;;7369141;19;20445;-44
2022/12/17 21:58:36;;;;;;;90.22;37.20;;;-2.60;99.90;;;;;;7374430;19;20458;-44
2022/12/17 22:01:17;;;;;;;85.60;33.95;;;-2.60;99.90;;;;;;7372097;19;20014;-46
2022/12/17 22:03:45;;;;;;;87.57;35.63;;;-2.60;99.90;;;;;;7369037;19;20351;-42
2022/12/17 22:06:37;;;;;;;91.25;37.22;;;-2.60;99.90;;;;;;7373365;19;20035;-41
2022/12/17 22:09:05;;;;;;;84.78;34.25;;;-2.70;99.90;;;;;;7369315;19;20034;-41
2022/12/17 22:11:39;;;;;;;88.70;35.35;;;-2.70;99.90;;;;;;7373737;19;20054;-42
2022/12/17 22:14:11;;;;;;;84.10;35.88;;;-2.70;99.90;;;;;;7366177;19;20094;-44
2022/12/17 22:16:45;;;;;;;87.15;33.28;;;-2.70;99.90;;;;;;7372821;19;20022;-45
2022/12/17 22:19:18;;;;;;;88.63;33.80;;;-2.70;99.90;;;;;;7368629;19;20033;-42
2022/12/17 22:21:46;;;;;;;70.22;29.38;;;-2.70;99.90;;;;;;7368069;19;20488;-42
2022/12/17 22:24:21;;;;;;;65.15;30.98;;;-2.80;99.90;;;;;;7366193;19;20788;-43
2022/12/17 22:26:59;;;;;;;73.50;32.60;;;-2.80;99.90;;;;;;7370140;19;20018;-42
2022/12/17 22:34:57;;;;;;;77.03;30.23;;;-2.80;99.90;;;;;;7367223;19;20078;-44
2022/12/17 22:37:24;;;;;;;82.43;34.33;;;-2.80;99.90;;;;;;7373435;19;20042;-44
2022/12/17 22:39:50;;;;;;;81.55;34.65;;;-2.80;99.90;;;;;;7369583;19;20643;-45
2022/12/17 22:45:02;;;;;;;72.45;28.85;;;-2.80;99.90;;;;;;7366996;19;20015;-45
2022/12/17 22:47:28;;;;;;;73.47;31.60;;;-2.80;99.90;;;;;;7370884;19;20022;-46
2022/12/17 22:49:54;;;;;;;79.43;30.92;;;-2.80;99.90;;;;;;7369532;19;20015;-47
2022/12/17 22:52:21;;;;;;;69.60;31.48;;;-2.80;99.90;;;;;;7369326;19;20023;-45
2022/12/17 22:54:47;;;;;;;75.43;33.03;;;-2.80;99.90;;;;;;7369335;19;20019;-46
2022/12/17 22:57:14;;;;;;;79.18;32.85;;;-2.80;99.90;;;;;;7367934;19;20018;-43
2022/12/17 22:59:40;;;;;;;75.55;32.80;;;-2.80;99.90;;;;;;7370146;19;20599;-45
2022/12/17 23:02:09;;;;;;;81.63;35.22;;;-2.80;99.90;;;;;;7364041;19;20042;-46
2022/12/17 23:04:35;;;;;;;67.63;30.42;;;-2.80;99.90;;;;;;7364488;19;20426;-46
2022/12/17 23:07:02;;;;;;;80.47;33.22;;;-2.90;99.90;;;;;;7363974;19;20019;-45
2022/12/17 23:09:28;;;;;;;77.60;32.33;;;-2.90;99.90;;;;;;7369566;19;20022;-44
2022/12/17 23:11:54;;;;;;;83.65;34.75;;;-2.80;99.90;;;;;;7366476;19;20022;-45
2022/12/17 23:14:21;;;;;;;80.20;33.88;;;-2.80;99.90;;;;;;7366560;19;20014;-42
2022/12/17 23:16:47;;;;;;;80.00;34.25;;;-2.80;99.90;;;;;;7365283;19;20036;-45
2022/12/17 23:19:13;;;;;;;93.05;32.90;;;-2.90;99.90;;;;;;7369115;19;20022;-43
2022/12/17 23:21:45;;;;;;;85.18;35.50;;;-3.00;99.90;;;;;;7369334;19;20057;-44
2022/12/17 23:24:11;;;;;;;83.25;34.53;;;-3.00;99.90;;;;;;7362331;19;20026;-42
2022/12/17 23:26:38;;;;;;;82.93;34.42;;;-3.10;99.90;;;;;;7366540;19;20025;-43
2022/12/17 23:29:07;;;;;;;82.15;32.65;;;-3.00;99.90;;;;;;7369241;19;20019;-44
2022/12/17 23:31:39;;;;;;;87.57;31.60;;;-3.10;99.90;;;;;;7368873;19;20945;-45
2022/12/17 23:34:06;;;;;;;87.72;32.95;;;-3.10;99.90;;;;;;7371280;19;20093;-45
2022/12/17 23:36:34;;;;;;;86.82;34.88;;;-3.10;99.90;;;;;;7372068;19;20109;-47
2022/12/17 23:39:00;;;;;;;81.70;32.15;;;-3.20;99.90;;;;;;7372890;19;20022;-44
2022/12/17 23:41:29;;;;;;;72.32;33.22;;;-3.20;99.90;;;;;;7377335;19;20018;-43
2022/12/17 23:43:56;;;;;;;78.97;31.48;;;-3.20;99.90;;;;;;7378815;19;20054;-43
2022/12/17 23:46:25;;;;;;;82.00;32.22;;;-3.20;99.90;;;;;;7374585;19;20093;-42
2022/12/17 23:48:51;;;;;;;78.95;31.80;;;-3.30;99.90;;;;;;7378340;19;20018;-44
2022/12/17 23:51:22;;;;;;;93.53;34.78;;;-3.20;99.90;;;;;;7376869;19;20018;-45
2022/12/17 23:53:49;;;;;;;85.90;33.53;;;-3.20;99.90;;;;;;7373549;19;20703;-44
2022/12/17 23:56:18;;;;;;;88.32;33.60;;;-3.20;99.90;;;;;;7370924;19;20489;-46
2022/12/17 23:58:51;;;;;;;93.95;37.03;;;-3.20;99.90;;;;;;7368645;19;20031;-45
